Terminal Aerodrome Forecast
Issued by NWS North Platte, NE

Home | Current Version | Previous Version | Graphics & Text | Print | Product List | Glossary On
Versions: 1 2 3 4 5 6 7 8 9 10 11 12 13 14 15 16 17 18 19 20 21
783
FTUS43 KLBF 201754
TAFVTN
TAF
KVTN 201754Z 2018/2118 07010KT P6SM BKN150
     FM210600 08007KT P6SM VCSH OVC060
     FM210700 06009KT P6SM -RA OVC050
     FM210900 05009KT 5SM -RASN OVC040
     FM211000 05009KT 3SM -SN OVC025
     FM211200 05008KT 1 1/2SM -SN OVC015
     FM211600 07010KT 2SM -RASN OVC015
     FM211700 08010KT 4SM -RASN OVC015=

USA.gov is the U.S. government's official web portal to all federal, state and local government web resources and services.